Time;durP1;ratioP1;P1;durP2;ratioP2;P2;SDS_P1;SDS_P2;PMS_P1;PMS_P2;Temp;Humidity;BMP_temperature;BMP_pressure;BME280_temperature;BME280_humidity;BME280_pressure;Samples;Min_cycle;Max_cycle;Signal;HPM_P1;HPM_P2
2021/11/17 02:25:53;;;;;;;82.50;32.90;;;;;;;-7.13;93.22;100644.08;1719886;83;21404;-67
2021/11/17 02:28:31;;;;;;;82.85;34.70;;;;;;;-7.14;93.18;100647.75;1727508;83;20938;-67
2021/11/17 02:31:30;;;;;;;83.95;32.17;;;;;;;-7.18;93.01;100641.93;1727184;83;20879;-67
2021/11/17 02:34:34;;;;;;;75.25;31.33;;;;;;;-7.19;93.01;100637.59;1727460;83;21122;-67
2021/11/17 02:37:14;;;;;;;78.83;31.50;;;;;;;-7.16;93.20;100640.42;1719970;83;20920;-67
2021/11/17 02:39:52;;;;;;;84.00;32.98;;;;;;;-7.14;93.34;100643.75;1716168;83;20956;-67
2021/11/17 02:42:48;;;;;;;75.75;31.12;;;;;;;-7.10;93.49;100650.40;1724412;82;20891;-67
2021/11/17 02:45:43;;;;;;;91.70;35.25;;;;;;;-7.09;93.46;100648.89;1723971;82;21442;-67
2021/11/17 02:48:47;;;;;;;68.65;30.37;;;;;;;-7.06;93.49;100647.21;1719350;82;21082;-67
2021/11/17 02:51:31;;;;;;;74.77;32.33;;;;;;;-7.08;93.35;100643.88;1728049;83;20887;-67
2021/11/17 02:54:23;;;;;;;70.78;31.77;;;;;;;-7.12;93.13;100634.56;1729378;83;21683;-67
2021/11/17 02:56:57;;;;;;;81.20;34.53;;;;;;;-7.13;93.12;100635.56;1726860;83;20990;-68
2021/11/17 02:59:32;;;;;;;82.55;32.63;;;;;;;-7.11;93.28;100633.55;1719031;82;20900;-70
2021/11/17 03:02:22;;;;;;;75.92;30.17;;;;;;;-7.10;93.24;100634.39;1728757;82;21202;-69
2021/11/17 03:05:39;;;;;;;84.20;30.50;;;;;;;-7.12;93.06;100629.73;1719701;82;20936;-68
2021/11/17 03:08:39;;;;;;;79.80;32.20;;;;;;;-7.13;92.88;100632.07;1724194;82;20883;-68
2021/11/17 03:11:32;;;;;;;71.17;28.32;;;;;;;-7.16;92.82;100633.75;1697492;82;20979;-68
2021/11/17 03:14:39;;;;;;;68.20;29.30;;;;;;;-7.19;92.95;100632.27;1717340;83;20931;-67
2021/11/17 03:17:20;;;;;;;67.05;28.30;;;;;;;-7.18;93.21;100628.59;1710064;83;21916;-67
2021/11/17 03:27:22;;;;;;;92.45;36.85;;;;;;;-7.13;93.75;100628.89;1785861;78;26845;-67
2021/11/17 03:30:20;;;;;;;78.20;31.82;;;;;;;-7.11;93.79;100628.72;1753090;80;20995;-64
2021/11/17 03:33:24;;;;;;;77.40;30.17;;;;;;;-7.11;93.82;100620.21;1712666;81;21100;-64
2021/11/17 03:36:28;;;;;;;85.03;34.30;;;;;;;-7.13;93.57;100629.40;1756499;80;20883;-67
2021/11/17 03:39:22;;;;;;;87.45;32.65;;;;;;;-7.18;93.31;100623.75;1752037;80;20953;-67
2021/11/17 03:42:06;;;;;;;77.32;31.25;;;;;;;-7.23;93.04;100628.78;1727020;81;21020;-67
2021/11/17 03:45:04;;;;;;;80.32;29.27;;;;;;;-7.32;92.56;100624.81;1741491;81;20992;-65
2021/11/17 03:47:58;;;;;;;70.45;29.52;;;;;;;-7.38;92.19;100629.51;1725727;82;21163;-65
2021/11/17 03:50:43;;;;;;;73.07;31.10;;;;;;;-7.45;91.84;100630.37;1724163;81;20901;-67
2021/11/17 03:53:35;;;;;;;83.97;31.15;;;;;;;-7.52;91.62;100625.43;1744999;82;20909;-66
2021/11/17 03:56:33;;;;;;;66.92;26.73;;;;;;;-7.58;91.41;100622.95;1743966;81;21521;-67
2021/11/17 03:59:29;;;;;;;90.30;33.92;;;;;;;-7.62;91.24;100628.29;1732096;82;20922;-65
2021/11/17 04:02:31;;;;;;;84.52;33.58;;;;;;;-7.66;91.08;100621.14;1735370;82;22047;-65
2021/11/17 04:05:19;;;;;;;100.25;38.98;;;;;;;-7.71;90.87;100617.32;1741148;81;20966;-65
2021/11/17 04:08:34;;;;;;;100.72;36.90;;;;;;;-7.76;90.75;100619.16;1728951;81;21001;-66
2021/11/17 04:11:24;;;;;;;94.55;37.28;;;;;;;-7.80;90.59;100617.84;1739469;81;20981;-65
2021/11/17 04:14:19;;;;;;;98.95;37.15;;;;;;;-7.85;90.41;100617.52;1734950;81;20929;-66
2021/11/17 04:17:20;;;;;;;83.52;32.65;;;;;;;-7.90;90.37;100612.38;1743991;81;21106;-67
2021/11/17 04:20:09;;;;;;;87.57;36.17;;;;;;;-7.92;90.39;100614.38;1731256;81;20982;-64
2021/11/17 04:22:53;;;;;;;84.45;33.18;;;;;;;-7.99;90.43;100611.05;1732740;81;20921;-64
2021/11/17 04:25:38;;;;;;;86.50;34.05;;;;;;;-8.01;90.77;100609.06;1740371;81;20900;-64
2021/11/17 04:28:54;;;;;;;87.45;33.83;;;;;;;-8.00;91.07;100606.73;1755918;81;20936;-65
2021/11/17 04:31:35;;;;;;;91.37;32.78;;;;;;;-7.99;91.15;100608.89;1761188;80;21400;-65
2021/11/17 04:34:07;;;;;;;96.87;36.75;;;;;;;-8.00;91.17;100604.06;1760599;81;20914;-69
2021/11/17 04:36:59;;;;;;;;;;;;;;;-8.01;91.13;100606.89;1760928;81;20944;-68
2021/11/17 04:39:35;;;;;;;88.72;34.00;;;;;;;-8.01;91.09;100607.73;1751281;80;20098;-66
2021/11/17 04:42:36;;;;;;;94.28;36.40;;;;;;;-8.03;91.06;100613.73;1743251;81;20979;-66
2021/11/17 04:45:20;;;;;;;100.15;39.13;;;;;;;-8.02;91.43;100611.39;1762689;81;21143;-66
2021/11/17 04:48:19;;;;;;;77.42;32.63;;;;;;;-8.00;91.52;100605.39;1758061;81;20967;-66
2021/11/17 04:50:58;;;;;;;87.15;34.65;;;;;;;-8.02;91.44;100599.41;1756403;81;20982;-66
2021/11/17 04:54:08;;;;;;;88.15;33.25;;;;;;;-7.99;92.00;100599.56;1749005;81;20877;-62
2021/11/17 04:57:39;;;;;;;86.45;36.68;;;;;;;-7.94;92.39;100600.38;1758131;80;20975;-65
2021/11/17 05:00:18;;;;;;;82.08;32.08;;;;;;;-7.89;92.65;100606.87;1752676;81;21162;-67
2021/11/17 05:03:08;;;;;;;72.12;29.55;;;;;;;-7.85;92.88;100606.86;1746121;81;20915;-64
2021/11/17 05:05:58;;;;;;;76.07;30.35;;;;;;;-7.80;93.12;100600.52;1751693;80;21443;-65
2021/11/17 05:08:31;;;;;;;88.20;34.13;;;;;;;-7.76;93.23;100594.34;1754768;81;21075;-66
2021/11/17 05:11:17;;;;;;;;;;;;;;;-7.72;93.29;100596.99;1763174;81;20935;-66
2021/11/17 05:14:23;;;;;;;81.72;33.15;;;;;;;-7.71;93.26;100594.16;1759799;81;23270;-65
2021/11/17 05:17:02;;;;;;;69.15;28.15;;;;;;;-7.68;93.38;100591.65;1748572;80;20913;-65
2021/11/17 05:19:40;;;;;;;77.22;31.97;;;;;;;-7.65;93.48;100589.97;1744423;80;21002;-66
2021/11/17 05:22:30;;;;;;;82.00;32.15;;;;;;;-7.63;93.47;100597.80;1741587;81;21083;-69
2021/11/17 05:25:35;;;;;;;83.82;31.93;;;;;;;-7.61;93.43;100597.95;1731549;81;21091;-68
2021/11/17 05:28:20;;;;;;;74.50;29.40;;;;;;;-7.61;93.43;100594.45;1744307;80;21174;-65
2021/11/17 05:30:52;;;;;;;77.35;30.80;;;;;;;-7.60;93.52;100590.78;1739247;81;21048;-65
2021/11/17 05:33:40;;;;;;;81.90;31.12;;;;;;;-7.61;93.55;100591.29;1714354;80;20997;-70
2021/11/17 05:36:41;;;;;;;78.60;31.27;;;;;;;-7.60;93.64;100598.28;1675340;82;21008;-68
2021/11/17 05:39:19;;;;;;;77.60;31.82;;;;;;;-7.60;93.72;100587.62;1747250;81;20883;-65
2021/11/17 05:42:04;;;;;;;92.67;34.53;;;;;;;-7.60;93.79;100589.45;1741526;81;21096;-64
2021/11/17 05:44:57;;;;;;;86.72;32.42;;;;;;;-7.58;93.84;100594.95;1731981;82;21404;-65
2021/11/17 05:47:32;;;;;;;79.37;30.30;;;;;;;-7.55;93.90;100598.59;1725203;82;21500;-69
2021/11/17 05:50:20;;;;;;;76.70;30.80;;;;;;;-7.49;94.10;100599.71;1718386;82;20936;-70
2021/11/17 05:53:18;;;;;;;80.42;32.58;;;;;;;-7.48;93.94;100599.54;1716965;82;20884;-72
2021/11/17 05:56:26;;;;;;;77.80;31.00;;;;;;;-7.47;93.94;100599.87;1729200;82;21140;-68
2021/11/17 05:59:34;;;;;;;68.22;29.37;;;;;;;-7.46;94.00;100598.03;1715346;82;21402;-66
2021/11/17 06:02:48;;;;;;;84.32;32.65;;;;;;;-7.44;94.09;100595.52;1656151;85;20952;-67
2021/11/17 06:05:14;;;;;;;81.32;32.25;;;;;;;-7.41;94.21;100589.84;1661908;85;21007;-65
2021/11/17 06:07:40;;;;;;;74.07;31.95;;;;;;;-7.36;94.31;100590.16;1662932;85;20928;-62
2021/11/17 06:10:12;;;;;;;86.10;34.58;;;;;;;-7.36;94.31;100590.16;1662474;85;21109;-66
2021/11/17 06:12:39;;;;;;;77.70;33.67;;;;;;;-7.29;94.50;100597.45;1659123;85;20999;-65
2021/11/17 06:15:07;;;;;;;81.17;32.30;;;;;;;-7.22;94.67;100598.42;1634777;85;21086;-65
2021/11/17 06:17:35;;;;;;;77.03;31.60;;;;;;;-7.17;94.75;100592.89;1668815;85;21114;-67
2021/11/17 06:20:04;;;;;;;72.62;30.55;;;;;;;-7.09;94.84;100594.69;1659321;85;21064;-67
2021/11/17 06:22:32;;;;;;;68.90;29.35;;;;;;;-7.01;94.91;100591.46;1655969;85;21141;-68
2021/11/17 06:25:03;;;;;;;89.28;33.28;;;;;;;-6.94;95.00;100588.92;1678738;84;21111;-68
2021/11/17 06:27:32;;;;;;;70.57;28.65;;;;;;;-6.83;95.74;100587.65;1755528;80;21100;-68
2021/11/17 06:29:59;;;;;;;74.25;30.62;;;;;;;-6.75;95.62;100583.08;1711775;81;20893;-66
2021/11/17 06:32:27;;;;;;;74.17;32.73;;;;;;;-6.68;95.42;100584.53;1757392;81;20988;-66
2021/11/17 06:34:58;;;;;;;74.07;33.02;;;;;;;-6.34;96.29;100586.73;1732510;81;21176;-66
2021/11/17 06:37:26;;;;;;;77.47;32.80;;;;;;;-5.75;96.99;100572.04;1727591;81;21079;-68
2021/11/17 06:39:56;;;;;;;72.85;30.65;;;;;;;-5.11;95.91;100573.55;1754480;81;21046;-67
2021/11/17 06:42:34;;;;;;;70.12;29.40;;;;;;;-4.56;94.06;100569.34;1755262;80;20861;-67
2021/11/17 06:45:23;;;;;;;79.12;34.50;;;;;;;-4.02;92.63;100572.23;1758031;80;20927;-67
2021/11/17 06:47:50;;;;;;;69.85;35.50;;;;;;;-3.61;89.31;100570.94;1733350;80;21042;-68
2021/11/17 06:50:18;;;;;;;75.05;37.55;;;;;;;-3.18;88.73;100562.64;1751957;79;20946;-68
2021/11/17 06:52:45;;;;;;;73.15;36.17;;;;;;;-2.84;86.14;100566.53;1731094;82;21053;-68
2021/11/17 06:55:12;;;;;;;81.15;40.33;;;;;;;-2.62;84.95;100569.05;1749711;81;20948;-66
2021/11/17 06:57:39;;;;;;;80.95;35.50;;;;;;;-2.40;84.84;100558.43;1745078;81;20919;-66
2021/11/17 07:00:09;;;;;;;79.47;33.23;;;;;;;-2.12;83.13;100557.67;1737616;81;21114;-65
2021/11/17 07:02:36;;;;;;;62.98;29.25;;;;;;;-1.86;82.03;100559.50;1732989;81;21670;-66
2021/11/17 07:05:04;;;;;;;57.93;27.87;;;;;;;-1.60;81.18;100555.89;1734995;81;21038;-66
2021/11/17 07:07:31;;;;;;;69.17;31.48;;;;;;;-1.38;80.01;100556.45;1734345;81;21443;-66
2021/11/17 07:09:58;;;;;;;64.07;29.10;;;;;;;-1.28;78.98;100555.99;1755492;80;20891;-67
2021/11/17 07:12:25;;;;;;;70.55;31.82;;;;;;;-1.18;77.94;100549.63;1743785;81;21209;-68
2021/11/17 07:14:52;;;;;;;55.58;27.58;;;;;;;-1.05;78.10;100549.53;1716668;81;21053;-67
2021/11/17 07:17:18;;;;;;;52.95;25.75;;;;;;;-0.82;77.33;100557.91;1729978;82;20904;-66
2021/11/17 07:19:45;;;;;;;52.62;23.42;;;;;;;-0.67;76.13;100562.48;1730359;81;20937;-66
2021/11/17 07:22:13;;;;;;;50.23;23.10;;;;;;;-0.60;75.64;100561.61;1721511;80;20894;-67
2021/11/17 07:24:39;;;;;;;43.05;21.25;;;;;;;-0.49;75.37;100560.88;1724104;81;23293;-67
2021/11/17 07:27:11;;;;;;;50.15;23.75;;;;;;;-0.37;75.07;100561.83;1711527;81;21090;-68
2021/11/17 07:29:37;;;;;;;50.83;22.90;;;;;;;-0.26;74.77;100553.03;1697988;83;20904;-67
2021/11/17 07:32:05;;;;;;;45.05;24.37;;;;;;;-0.09;74.18;100554.66;1724999;81;20965;-69
2021/11/17 07:34:31;;;;;;;50.28;23.52;;;;;;;0.00;73.62;100554.67;1719974;82;20928;-67
2021/11/17 07:36:58;;;;;;;44.93;24.60;;;;;;;0.09;73.65;100556.53;1731032;81;21140;-67
2021/11/17 07:39:24;;;;;;;47.40;21.80;;;;;;;0.23;73.41;100555.36;1737986;81;20994;-67
2021/11/17 07:41:53;;;;;;;59.93;32.73;;;;;;;0.48;73.02;100547.20;1737504;82;20847;-67
2021/11/17 07:44:22;;;;;;;85.90;43.40;;;;;;;0.74;72.57;100554.97;1744139;81;20895;-67
2021/11/17 07:46:53;;;;;;;54.30;30.08;;;;;;;0.90;72.03;100552.99;1745023;81;21509;-67
2021/11/17 07:49:20;;;;;;;51.63;26.87;;;;;;;1.13;71.66;100553.62;1739985;81;21160;-68
2021/11/17 07:51:47;;;;;;;46.55;21.27;;;;;;;1.41;70.30;100557.58;1736090;81;20983;-67
2021/11/17 07:54:14;;;;;;;42.73;22.37;;;;;;;1.59;70.16;100553.45;1745112;82;20932;-67
2021/11/17 07:56:43;;;;;;;38.20;19.70;;;;;;;1.86;69.35;100555.99;1747043;81;21502;-68
2021/11/17 07:59:12;;;;;;;45.12;21.73;;;;;;;2.07;68.94;100554.59;1734939;81;21456;-67
2021/11/17 08:01:39;;;;;;;48.23;25.27;;;;;;;2.28;67.04;100550.47;1711618;81;21153;-67
2021/11/17 08:04:08;;;;;;;45.12;20.48;;;;;;;2.45;67.13;100546.48;1731240;82;20933;-67
2021/11/17 08:06:34;;;;;;;54.25;22.87;;;;;;;2.73;65.94;100549.79;1735830;81;20975;-67
2021/11/17 08:09:01;;;;;;;49.73;21.10;;;;;;;2.92;66.27;100548.53;1738537;81;20865;-67
2021/11/17 08:11:31;;;;;;;37.00;18.40;;;;;;;3.16;64.97;100555.52;1703338;82;20842;-68
2021/11/17 08:13:58;;;;;;;51.42;20.82;;;;;;;3.59;63.40;100548.67;1723999;82;21804;-73
2021/11/17 08:16:24;;;;;;;54.35;22.93;;;;;;;3.59;63.40;100548.67;1699528;82;20995;-69
2021/11/17 08:18:51;;;;;;;45.25;20.17;;;;;;;3.70;62.24;100546.41;1706435;82;20970;-69
2021/11/17 08:21:18;;;;;;;46.58;18.25;;;;;;;3.80;62.97;100544.41;1697899;83;20903;-66
2021/11/17 08:23:45;;;;;;;51.13;16.62;;;;;;;3.87;61.12;100545.89;1701777;82;21003;-68
2021/11/17 08:26:12;;;;;;;38.60;16.70;;;;;;;3.84;60.45;100544.20;1686701;84;21232;-69
2021/11/17 08:28:39;;;;;;;28.98;14.40;;;;;;;3.85;60.27;100539.05;1696640;82;21411;-67
2021/11/17 08:31:05;;;;;;;44.23;18.00;;;;;;;3.69;60.22;100547.48;1726387;82;20972;-69
2021/11/17 08:33:34;;;;;;;32.03;16.25;;;;;;;3.69;60.22;100547.48;1747854;81;20967;-67
2021/11/17 08:36:02;;;;;;;29.15;15.72;;;;;;;3.78;60.94;100541.94;1741550;81;20896;-66
2021/11/17 08:38:28;;;;;;;29.50;14.80;;;;;;;4.08;60.82;100545.64;1741521;82;21156;-69
2021/11/17 08:40:59;;;;;;;32.23;15.45;;;;;;;4.25;58.46;100544.27;1732855;81;20923;-70
2021/11/17 08:43:26;;;;;;;29.87;15.30;;;;;;;4.18;58.80;100548.52;1743372;81;21501;-68
2021/11/17 08:45:53;;;;;;;33.75;16.23;;;;;;;4.28;59.14;100542.41;1716817;81;21570;-68
2021/11/17 08:48:22;;;;;;;31.70;14.85;;;;;;;4.52;59.02;100544.38;1726234;81;20988;-68
2021/11/17 08:50:50;;;;;;;35.45;16.27;;;;;;;4.55;57.22;100541.97;1706720;82;21840;-65
2021/11/17 08:53:19;;;;;;;37.05;17.75;;;;;;;4.36;57.99;100535.19;1719887;81;20911;-67
2021/11/17 08:55:46;;;;;;;38.92;16.73;;;;;;;4.30;59.00;100534.83;1733122;82;21424;-65
2021/11/17 08:58:14;;;;;;;39.60;19.45;;;;;;;4.38;57.54;100530.85;1723586;81;21537;-63
2021/11/17 09:00:43;;;;;;;42.58;18.17;;;;;;;4.14;57.22;100521.55;1739189;82;21474;-65
2021/11/17 09:03:10;;;;;;;35.48;16.50;;;;;;;4.01;58.40;100524.64;1730970;82;21595;-66
2021/11/17 09:05:42;;;;;;;31.25;15.05;;;;;;;4.04;57.73;100515.17;1729653;82;20880;-64
2021/11/17 09:08:09;;;;;;;33.63;16.40;;;;;;;3.99;58.04;100521.35;1734015;82;20892;-64
2021/11/17 09:10:41;;;;;;;41.92;17.10;;;;;;;4.09;58.51;100521.47;1737247;82;21051;-66
2021/11/17 09:13:08;;;;;;;40.75;16.90;;;;;;;4.24;58.47;100518.16;1730922;82;21027;-71
2021/11/17 09:15:39;;;;;;;42.40;16.62;;;;;;;4.36;58.03;100516.16;1731172;82;21073;-72
2021/11/17 09:18:07;;;;;;;40.63;16.87;;;;;;;4.58;58.30;100510.73;1735334;82;20997;-68
2021/11/17 09:20:34;;;;;;;47.03;17.27;;;;;;;4.80;57.63;100512.06;1725487;81;21043;-72
2021/11/17 09:23:02;;;;;;;28.20;15.23;;;;;;;5.01;56.99;100506.31;1697198;82;21097;-72
2021/11/17 09:25:29;;;;;;;34.13;15.35;;;;;;;5.13;55.90;100496.92;1720063;82;21132;-70
2021/11/17 09:27:55;;;;;;;32.80;15.88;;;;;;;5.19;54.88;100504.61;1690257;83;21522;-69
2021/11/17 09:30:25;;;;;;;27.65;14.20;;;;;;;5.03;55.10;100500.91;1694247;82;20843;-68
2021/11/17 09:32:55;;;;;;;23.30;12.07;;;;;;;5.09;54.86;100495.80;1716931;82;20935;-67
2021/11/17 09:35:22;;;;;;;27.55;14.63;;;;;;;5.11;54.87;100492.28;1712234;83;20958;-70
2021/11/17 09:37:50;;;;;;;28.42;12.70;;;;;;;4.99;54.09;100484.80;1698708;83;20999;-70
2021/11/17 09:40:28;;;;;;;28.85;12.18;;;;;;;4.76;54.28;100484.55;1704796;81;21079;-72
2021/11/17 09:42:55;;;;;;;24.70;12.73;;;;;;;4.72;55.22;100474.42;1700242;81;21001;-68
2021/11/17 09:45:22;;;;;;;24.30;10.18;;;;;;;4.91;55.49;100482.53;1694942;83;21473;-68
2021/11/17 09:47:49;;;;;;;26.93;9.63;;;;;;;5.30;53.54;100481.81;1696167;83;21007;-68
2021/11/17 09:50:39;;;;;;;20.08;8.78;;;;;;;5.46;52.41;100478.70;1716626;82;21561;-71
2021/11/17 09:53:14;;;;;;;24.43;10.50;;;;;;;5.51;51.81;100474.66;1719635;81;21537;-66
2021/11/17 09:55:48;;;;;;;12.73;7.70;;;;;;;5.48;52.61;100475.17;1718418;81;20936;-66
2021/11/17 09:58:20;;;;;;;20.48;9.15;;;;;;;5.75;51.16;100467.77;1719441;82;21503;-66
2021/11/17 10:01:01;;;;;;;17.80;8.65;;;;;;;5.77;50.62;100464.78;1735160;81;20975;-67
2021/11/17 10:03:52;;;;;;;16.40;7.53;;;;;;;5.76;49.77;100444.89;1731595;81;20868;-67
2021/11/17 10:12:49;;;;;;;26.33;10.50;;;;;;;5.72;49.67;100447.86;1703883;83;20924;-69
2021/11/17 10:14:55;;;;;;;21.05;10.10;;;;;;;5.85;50.18;100443.83;1720572;81;21856;-70
2021/11/17 10:17:36;;;;;;;13.90;7.60;;;;;;;6.21;48.73;100442.17;1720378;82;20999;-69
2021/11/17 10:20:14;;;;;;;13.38;6.35;;;;;;;6.48;48.05;100441.45;1728041;82;21208;-71
2021/11/17 10:22:50;;;;;;;18.60;7.80;;;;;;;6.59;45.28;100443.13;1729510;81;20928;-70
2021/11/17 10:25:22;;;;;;;20.27;8.83;;;;;;;6.41;46.47;100439.51;1727855;81;20932;-67
2021/11/17 10:27:57;;;;;;;17.60;7.33;;;;;;;6.48;47.20;100439.27;1694565;82;20967;-68
2021/11/17 10:30:30;;;;;;;16.90;7.92;;;;;;;6.73;47.19;100437.98;1694901;83;21597;-66
2021/11/17 10:33:20;;;;;;;18.52;8.28;;;;;;;7.04;46.24;100434.76;1694113;83;21782;-68
2021/11/17 10:36:04;;;;;;;17.40;8.08;;;;;;;7.39;45.47;100429.05;1701920;83;21016;-69
2021/11/17 10:38:43;;;;;;;21.45;9.43;;;;;;;7.57;44.84;100432.58;1689268;83;20967;-67
2021/11/17 10:41:27;;;;;;;24.65;9.53;;;;;;;7.66;44.15;100430.11;1685414;83;20891;-71
2021/11/17 10:44:10;;;;;;;15.85;8.48;;;;;;;7.45;44.00;100426.05;1690545;83;21050;-66
2021/11/17 10:46:44;;;;;;;22.07;11.38;;;;;;;7.33;43.44;100421.95;1689362;83;21153;-69
2021/11/17 10:49:17;;;;;;;17.23;9.08;;;;;;;7.32;43.68;100424.41;1691884;83;21003;-70
2021/11/17 10:52:01;;;;;;;12.35;7.35;;;;;;;7.23;43.35;100419.48;1702474;83;20962;-66
2021/11/17 10:54:30;;;;;;;18.65;11.35;;;;;;;6.98;42.86;100407.17;1685778;83;20896;-68
2021/11/17 10:57:09;;;;;;;23.50;13.45;;;;;;;6.95;43.71;100404.98;1713676;81;21000;-70
2021/11/17 10:59:37;;;;;;;29.87;19.92;;;;;;;6.96;42.79;100398.44;1735968;81;21147;-72
2021/11/17 11:02:06;;;;;;;18.70;10.25;;;;;;;6.92;43.29;100391.91;1725405;81;20969;-68
2021/11/17 11:04:47;;;;;;;19.07;8.83;;;;;;;6.88;42.58;100383.98;1720737;82;21300;-73
2021/11/17 11:07:28;;;;;;;21.97;8.00;;;;;;;6.78;43.13;100387.52;1731135;81;21020;-68
2021/11/17 11:10:12;;;;;;;23.07;10.03;;;;;;;6.95;42.59;100386.70;1719826;82;21026;-67
2021/11/17 11:12:39;;;;;;;24.30;11.50;;;;;;;7.16;42.02;100379.34;1725594;81;21156;-67
2021/11/17 11:15:25;;;;;;;23.80;10.90;;;;;;;7.19;42.80;100379.34;1746120;81;20939;-69
2021/11/17 11:18:13;;;;;;;33.75;10.25;;;;;;;7.03;42.01;100377.15;1734422;81;21050;-76
2021/11/17 11:20:49;;;;;;;14.28;7.17;;;;;;;7.21;41.71;100373.06;1725860;81;20940;-73
2021/11/17 11:23:38;;;;;;;33.50;12.63;;;;;;;7.45;41.43;100374.69;1737964;81;20945;-68
2021/11/17 11:26:13;;;;;;;30.52;13.20;;;;;;;7.67;41.94;100364.80;1718954;82;21794;-72
2021/11/17 11:28:50;;;;;;;49.60;19.95;;;;;;;8.00;40.30;100361.42;1707035;81;21435;-67
2021/11/17 11:31:40;;;;;;;21.87;9.58;;;;;;;8.19;39.62;100370.62;1697845;81;21074;-71
2021/11/17 11:34:15;;;;;;;23.10;9.73;;;;;;;8.25;39.91;100371.42;1697822;82;21031;-68
2021/11/17 11:36:46;;;;;;;17.40;10.15;;;;;;;8.67;39.77;100362.73;1715550;81;21024;-71
2021/11/17 11:39:19;;;;;;;20.08;8.85;;;;;;;8.75;38.75;100364.88;1706808;81;21155;-73
2021/11/17 11:42:19;;;;;;;16.35;8.78;;;;;;;8.59;37.02;100361.44;1726258;81;21042;-75
2021/11/17 11:44:55;;;;;;;18.52;7.97;;;;;;;8.35;38.39;100359.10;1722127;81;21522;-72
2021/11/17 11:47:27;;;;;;;38.60;9.90;;;;;;;8.66;38.37;100352.91;1726844;81;21584;-76
2021/11/17 11:50:24;;;;;;;;;;;;;;;8.84;38.01;100345.37;1728268;81;20996;-72
2021/11/17 11:53:11;;;;;;;25.08;9.43;;;;;;;8.91;37.11;100350.53;1682138;82;21241;-69
2021/11/17 11:55:56;;;;;;;26.37;10.58;;;;;;;8.67;37.48;100343.56;1692336;82;20996;-76
2021/11/17 11:58:28;;;;;;;18.25;8.53;;;;;;;8.59;38.32;100346.94;1705376;82;22235;-73
2021/11/17 12:01:11;;;;;;;28.47;15.08;;;;;;;8.51;38.20;100339.31;1720977;81;20995;-71
2021/11/17 12:04:02;;;;;;;22.40;13.32;;;;;;;8.21;38.73;100332.88;1739581;81;20899;-75
2021/11/17 12:06:55;;;;;;;25.20;9.63;;;;;;;8.07;38.45;100334.61;1731337;81;21823;-72
2021/11/17 12:09:33;;;;;;;27.73;12.88;;;;;;;8.08;38.39;100323.12;1733423;81;20975;-74
2021/11/17 12:12:07;;;;;;;31.68;11.88;;;;;;;7.83;39.24;100320.75;1728976;81;20947;-72
2021/11/17 12:14:48;;;;;;;43.10;15.75;;;;;;;7.75;38.90;100315.85;1713974;81;21090;-73
2021/11/17 12:17:21;;;;;;;26.45;10.20;;;;;;;7.92;39.66;100317.71;1738456;81;26633;-79
2021/11/17 12:19:55;;;;;;;37.08;8.88;;;;;;;8.35;37.90;100318.61;1724778;81;21111;-69
2021/11/17 12:22:44;;;;;;;44.48;14.68;;;;;;;8.62;36.98;100315.45;1723385;81;21030;-74
2021/11/17 12:25:21;;;;;;;24.75;11.63;;;;;;;8.68;37.47;100307.44;1725951;82;20990;-74
2021/11/17 12:27:55;;;;;;;20.48;9.75;;;;;;;8.67;36.71;100312.64;1729773;81;21046;-70
2021/11/17 12:30:34;;;;;;;17.48;9.23;;;;;;;8.33;37.24;100309.32;1712971;82;21027;-77
2021/11/17 12:33:39;;;;;;;41.20;11.28;;;;;;;8.32;37.48;100308.20;1739129;82;21789;-74
2021/11/17 12:36:17;;;;;;;54.10;12.03;;;;;;;8.29;37.17;100310.40;1708125;82;20999;-72
2021/11/17 12:38:45;;;;;;;38.78;11.60;;;;;;;8.38;37.72;100305.19;1720693;81;21557;-66
2021/11/17 12:41:29;;;;;;;28.27;11.73;;;;;;;8.59;37.72;100297.13;1727240;82;20963;-66
2021/11/17 12:44:01;;;;;;;27.77;10.88;;;;;;;8.50;36.41;100297.45;1719143;81;21067;-78
2021/11/17 12:46:33;;;;;;;26.95;11.75;;;;;;;8.06;36.68;100299.34;1720938;81;22117;-72
2021/11/17 12:49:39;;;;;;;33.83;13.43;;;;;;;7.82;37.38;100295.88;1729138;81;21009;-66
2021/11/17 12:52:29;;;;;;;27.35;12.07;;;;;;;7.74;37.70;100298.37;1728845;81;20991;-71
2021/11/17 12:55:12;;;;;;;26.42;12.60;;;;;;;7.70;37.05;100297.28;1737487;81;21011;-71
2021/11/17 12:57:51;;;;;;;40.92;19.65;;;;;;;7.29;38.40;100291.95;1714501;81;21003;-77
2021/11/17 13:00:32;;;;;;;38.30;16.30;;;;;;;7.19;38.54;100298.78;1727804;81;21557;-80
2021/11/17 13:03:04;;;;;;;28.17;14.75;;;;;;;7.21;38.60;100297.42;1732939;81;21049;-78
2021/11/17 13:05:37;;;;;;;41.18;16.75;;;;;;;7.07;39.27;100297.70;1715458;82;21027;-77
2021/11/17 13:08:10;;;;;;;30.25;14.40;;;;;;;7.01;39.68;100294.70;1710991;82;21012;-75
2021/11/17 13:11:00;;;;;;;33.48;17.73;;;;;;;7.01;39.89;100302.08;1719458;81;21000;-70
2021/11/17 13:13:39;;;;;;;41.65;17.05;;;;;;;6.79;40.13;100296.91;1734842;81;21075;-68
2021/11/17 13:16:17;;;;;;;34.92;17.70;;;;;;;6.61;40.88;100300.45;1721389;81;21016;-69
2021/11/17 13:18:50;;;;;;;30.30;16.95;;;;;;;6.55;41.08;100306.98;1713282;82;21477;-79
2021/11/17 13:21:31;;;;;;;43.20;18.98;;;;;;;6.33;41.40;100304.23;1699156;82;21059;-76
2021/11/17 13:24:06;;;;;;;36.80;17.70;;;;;;;5.89;42.00;100300.00;1718924;81;20906;-76
2021/11/17 13:26:48;;;;;;;32.85;17.45;;;;;;;5.40;43.26;100297.30;1732930;81;21612;-79
2021/11/17 13:29:26;;;;;;;39.58;18.75;;;;;;;4.92;44.11;100304.60;1713361;81;21611;-75
2021/11/17 13:32:04;;;;;;;37.80;19.35;;;;;;;4.47;45.10;100297.70;1723681;81;21051;-74
2021/11/17 13:34:42;;;;;;;46.45;21.07;;;;;;;4.15;46.26;100299.53;1709526;81;21518;-74
2021/11/17 13:37:39;;;;;;;39.95;18.45;;;;;;;3.82;46.97;100298.64;1719813;81;21079;-74
2021/11/17 13:40:20;;;;;;;44.30;21.33;;;;;;;3.30;48.44;100292.27;1730181;82;21549;-69
2021/11/17 13:42:47;;;;;;;46.02;20.57;;;;;;;3.30;48.44;100292.27;1730315;81;21476;-70
2021/11/17 13:45:18;;;;;;;45.65;21.25;;;;;;;3.18;49.29;100287.48;1728817;81;21536;-69
2021/11/17 13:47:44;;;;;;;42.88;20.90;;;;;;;3.18;49.29;100287.48;1717846;82;21051;-72
2021/11/17 13:50:12;;;;;;;39.85;19.57;;;;;;;3.12;49.28;100284.41;1736392;81;21038;-72
2021/11/17 13:52:41;;;;;;;37.67;19.65;;;;;;;2.99;49.64;100286.09;1691460;83;21506;-73
2021/11/17 13:55:11;;;;;;;36.45;18.17;;;;;;;2.84;49.90;100281.82;1718084;81;21038;-70
2021/11/17 13:57:40;;;;;;;42.43;19.27;;;;;;;2.70;50.25;100286.75;1709847;81;20986;-72
2021/11/17 14:00:09;;;;;;;45.17;19.02;;;;;;;2.53;50.62;100284.55;1707543;82;21550;-71
2021/11/17 14:02:39;;;;;;;36.73;17.25;;;;;;;2.34;50.94;100282.59;1710876;81;20915;-70
2021/11/17 14:05:06;;;;;;;41.73;18.35;;;;;;;2.16;51.38;100280.94;1731626;81;21486;-71
2021/11/17 14:07:34;;;;;;;42.90;18.70;;;;;;;1.99;51.79;100284.95;1709404;82;21054;-70
2021/11/17 14:10:03;;;;;;;42.23;17.70;;;;;;;1.82;52.25;100287.31;1714079;82;20956;-72
2021/11/17 14:12:30;;;;;;;44.15;19.30;;;;;;;1.67;52.69;100282.44;1708207;82;21124;-72
2021/11/17 14:14:57;;;;;;;51.60;20.25;;;;;;;1.54;52.92;100286.76;1723356;81;20935;-70
2021/11/17 14:17:24;;;;;;;52.00;21.48;;;;;;;1.45;53.21;100280.07;1722590;81;21151;-70
2021/11/17 14:19:50;;;;;;;64.47;25.17;;;;;;;1.33;53.47;100282.27;1716602;81;20880;-67
2021/11/17 14:22:19;;;;;;;63.63;24.90;;;;;;;1.19;53.78;100286.27;1718009;81;20912;-64
2021/11/17 14:24:47;;;;;;;74.70;25.15;;;;;;;1.09;54.32;100286.59;1708718;82;21485;-69
2021/11/17 14:27:14;;;;;;;61.13;24.30;;;;;;;0.98;54.53;100284.19;1704453;82;21019;-70
2021/11/17 14:29:47;;;;;;;68.85;25.17;;;;;;;0.87;54.89;100283.12;1695479;83;21159;-67
2021/11/17 14:32:22;;;;;;;69.17;23.57;;;;;;;0.76;55.14;100283.94;1688635;83;25277;-65
2021/11/17 14:34:48;;;;;;;55.45;20.88;;;;;;;0.68;55.51;100286.98;1662516;84;21087;-75
2021/11/17 14:37:15;;;;;;;53.65;19.87;;;;;;;0.61;56.07;100286.26;1735310;81;21103;-69
2021/11/17 14:39:44;;;;;;;57.75;21.35;;;;;;;0.50;56.07;100283.86;1705010;83;20976;-72
2021/11/17 14:42:12;;;;;;;60.05;20.70;;;;;;;0.42;56.38;100290.12;1658516;85;21198;-78
2021/11/17 14:44:39;;;;;;;57.05;20.80;;;;;;;0.33;56.65;100287.75;1664384;85;21706;-66